createdAt,value
2024-04-09T00:01:03.504Z,44.39
2024-04-09T00:03:39.628Z,44.46
2024-04-09T00:06:16.087Z,44.38
2024-04-09T00:08:56.971Z,44.71
2024-04-09T00:11:29.335Z,44.37
2024-04-09T00:14:06.139Z,44.59
2024-04-09T00:16:41.398Z,44.50
2024-04-09T00:19:18.800Z,44.54
2024-04-09T00:21:53.267Z,44.50
2024-04-09T00:24:33.323Z,44.32
2024-04-09T00:27:07.873Z,44.51
2024-04-09T00:29:42.989Z,44.35
2024-04-09T00:32:15.195Z,44.72
2024-04-09T00:34:50.199Z,44.59
2024-04-09T00:37:24.070Z,44.24
2024-04-09T00:40:04.007Z,44.49
2024-04-09T00:42:36.249Z,44.61
2024-04-09T00:45:11.766Z,44.40
2024-04-09T00:47:48.337Z,44.64
2024-04-09T00:50:25.716Z,44.42
2024-04-09T00:52:59.954Z,44.25
2024-04-09T00:55:41.958Z,44.44
2024-04-09T00:58:15.661Z,44.44
2024-04-09T01:00:50.816Z,44.42
2024-04-09T01:03:24.108Z,44.34
2024-04-09T01:05:58.954Z,44.29
2024-04-09T01:08:31.036Z,44.40
2024-04-09T01:11:08.804Z,44.12
2024-04-09T01:13:41.211Z,44.51
2024-04-09T01:16:16.205Z,43.94
2024-04-09T01:18:48.427Z,44.03
2024-04-09T01:21:23.745Z,44.17
2024-04-09T01:24:00.202Z,44.14
2024-04-09T01:26:35.972Z,44.20
2024-04-09T01:29:08.096Z,44.18
2024-04-09T01:31:42.781Z,44.11
2024-04-09T01:34:16.947Z,43.94
2024-04-09T01:36:52.879Z,44.03
2024-04-09T01:39:28.847Z,43.88
2024-04-09T01:42:04.416Z,43.93
2024-04-09T01:44:36.880Z,43.95
2024-04-09T01:47:11.587Z,43.89
2024-04-09T01:49:43.875Z,44.46
2024-04-09T01:52:18.562Z,44.08
2024-04-09T01:54:53.454Z,43.89
2024-04-09T01:57:32.990Z,44.31
2024-04-09T02:00:12.579Z,43.81
2024-04-09T02:02:47.987Z,44.30
2024-04-09T02:05:21.256Z,44.21
2024-04-09T02:07:55.939Z,43.98
2024-04-09T02:10:30.664Z,44.00
2024-04-09T02:13:05.346Z,44.00
2024-04-09T02:15:37.601Z,44.07
2024-04-09T02:18:12.532Z,44.01
2024-04-09T02:20:46.224Z,43.81
2024-04-09T02:23:21.120Z,44.16
2024-04-09T02:25:56.063Z,44.02
2024-04-09T02:28:30.736Z,43.83
2024-04-09T02:31:05.369Z,44.15
2024-04-09T02:33:40.252Z,43.58
2024-04-09T02:36:13.357Z,44.07
2024-04-09T02:38:49.942Z,43.59
2024-04-09T02:41:24.663Z,43.98
2024-04-09T02:43:59.366Z,43.39
2024-04-09T02:46:32.327Z,43.69
2024-04-09T02:49:08.033Z,43.73
2024-04-09T02:51:41.186Z,43.59
2024-04-09T02:54:16.480Z,43.63
2024-04-09T02:56:51.426Z,43.11
2024-04-09T02:59:26.228Z,43.39
2024-04-09T03:01:58.372Z,43.37
2024-04-09T03:04:33.809Z,43.29
2024-04-09T03:07:06.099Z,43.51
2024-04-09T03:09:42.726Z,43.61
2024-04-09T03:12:17.750Z,43.30
2024-04-09T03:14:52.664Z,43.60
2024-04-09T03:17:24.759Z,43.41
2024-04-09T03:19:59.442Z,43.13
2024-04-09T03:22:31.508Z,43.47
2024-04-09T03:25:07.748Z,43.15
2024-04-09T03:27:42.709Z,43.24
2024-04-09T03:30:17.533Z,43.32
2024-04-09T03:32:52.577Z,43.52
2024-04-09T03:35:27.948Z,43.82
2024-04-09T03:38:02.718Z,43.50
2024-04-09T03:40:37.529Z,43.81
2024-04-09T03:43:14.799Z,43.50
2024-04-09T03:46:03.925Z,43.62
2024-04-09T03:48:36.707Z,43.63
2024-04-09T03:51:14.867Z,43.83
2024-04-09T03:53:47.998Z,43.78
2024-04-09T03:56:23.060Z,43.58
2024-04-09T03:58:57.904Z,43.52
2024-04-09T04:01:33.836Z,43.48
2024-04-09T04:04:06.243Z,43.67
2024-04-09T04:06:41.257Z,43.29
2024-04-09T04:09:13.455Z,43.68
2024-04-09T04:11:48.491Z,43.67
2024-04-09T04:14:23.232Z,43.55
2024-04-09T04:16:58.298Z,43.77
2024-04-09T04:19:30.579Z,43.61
2024-04-09T04:22:05.485Z,43.83
2024-04-09T04:24:37.658Z,43.62
2024-04-09T04:27:13.321Z,43.62
2024-04-09T04:29:48.888Z,43.75
2024-04-09T04:32:23.702Z,43.28
2024-04-09T04:34:58.514Z,43.64
2024-04-09T04:37:30.852Z,43.54
2024-04-09T04:40:06.180Z,43.80
2024-04-09T04:42:38.812Z,43.24
2024-04-09T04:45:18.198Z,43.74
2024-04-09T04:47:50.366Z,43.42
2024-04-09T04:50:25.101Z,43.65
2024-04-09T04:52:57.611Z,43.58
2024-04-09T04:55:33.339Z,43.55
2024-04-09T04:58:06.457Z,43.33
2024-04-09T05:00:44.186Z,43.29
2024-04-09T05:03:16.491Z,43.02
2024-04-09T05:05:51.224Z,43.45
2024-04-09T05:08:23.521Z,43.01
2024-04-09T05:10:58.272Z,42.93
2024-04-09T05:13:30.485Z,43.11
2024-04-09T05:16:07.815Z,43.10
2024-04-09T05:18:39.983Z,42.99
2024-04-09T05:21:14.807Z,43.16
2024-04-09T05:23:47.446Z,42.91
2024-04-09T05:26:22.328Z,43.03
2024-04-09T05:28:56.383Z,43.30
2024-04-09T05:31:33.887Z,43.30
2024-04-09T05:34:06.511Z,42.87
2024-04-09T05:36:41.371Z,43.09
2024-04-09T05:39:13.820Z,43.02
2024-04-09T05:41:48.685Z,42.64
2024-04-09T05:44:21.115Z,42.90
2024-04-09T05:46:58.718Z,42.52
2024-04-09T05:49:31.201Z,42.69
2024-04-09T05:52:06.075Z,42.72
2024-04-09T05:54:41.263Z,42.49
2024-04-09T05:57:16.209Z,42.37
2024-04-09T05:59:48.697Z,42.30
2024-04-09T06:02:26.213Z,42.60
2024-04-09T06:05:00.658Z,42.45
2024-04-09T06:07:35.314Z,42.11
2024-04-09T06:10:07.600Z,41.76
2024-04-09T06:12:42.708Z,41.82
2024-04-09T06:15:15.539Z,41.60
2024-04-09T06:17:52.963Z,41.57
2024-04-09T06:20:25.051Z,41.11
2024-04-09T06:22:59.747Z,41.29
2024-04-09T06:25:33.058Z,41.22
2024-04-09T06:28:09.098Z,41.37
2024-04-09T06:30:41.890Z,41.10
2024-04-09T06:33:20.419Z,41.25
2024-04-09T06:35:52.848Z,40.86
2024-04-09T06:38:27.584Z,41.35
2024-04-09T06:41:00.603Z,41.47
2024-04-09T06:43:35.145Z,39.75
2024-04-09T06:46:07.912Z,40.25
2024-04-09T06:48:45.316Z,40.48
2024-04-09T06:51:17.629Z,41.31
2024-04-09T06:53:52.453Z,40.75
2024-04-09T06:56:24.925Z,40.96
2024-04-09T06:59:02.818Z,41.20
2024-04-09T07:01:35.439Z,41.22
2024-04-09T07:04:13.241Z,41.19
2024-04-09T07:06:45.630Z,40.93
2024-04-09T07:09:20.799Z,40.56
2024-04-09T07:11:53.317Z,40.64
2024-04-09T07:14:27.959Z,40.15
2024-04-09T07:17:00.066Z,40.18
2024-04-09T07:19:37.641Z,40.49
2024-04-09T07:22:11.139Z,40.34
2024-04-09T07:24:45.984Z,40.29
2024-04-09T07:27:18.205Z,40.24
2024-04-09T07:29:52.899Z,40.12
2024-04-09T07:32:25.635Z,39.79
2024-04-09T07:35:04.961Z,39.86
2024-04-09T07:37:37.814Z,40.14
2024-04-09T07:40:12.472Z,40.14
2024-04-09T07:42:44.580Z,40.25
2024-04-09T07:45:19.471Z,40.10
2024-04-09T07:47:52.722Z,39.63
2024-04-09T07:50:30.164Z,39.50
2024-04-09T07:53:02.427Z,39.18
2024-04-09T07:55:39.126Z,39.77
2024-04-09T07:58:11.916Z,39.52
2024-04-09T08:00:47.463Z,39.24
2024-04-09T08:03:23.171Z,39.13
2024-04-09T08:05:58.215Z,39.43
2024-04-09T08:08:38.147Z,38.62
2024-04-09T08:11:13.288Z,38.82
2024-04-09T08:13:48.082Z,39.38
2024-04-09T08:16:20.081Z,38.44
2024-04-09T08:18:57.488Z,38.91
2024-04-09T08:21:32.513Z,39.07
2024-04-09T08:24:07.918Z,39.00
2024-04-09T08:26:42.234Z,38.86
2024-04-09T08:29:17.866Z,38.80
2024-04-09T08:31:51.686Z,38.98
2024-04-09T08:34:27.550Z,38.73
2024-04-09T08:37:02.821Z,39.23
2024-04-09T08:39:38.420Z,38.19
2024-04-09T08:42:10.831Z,38.23
2024-04-09T08:44:47.727Z,38.64
2024-04-09T08:47:21.708Z,38.61
2024-04-09T08:50:01.596Z,38.27
2024-04-09T08:52:38.097Z,38.31
2024-04-09T08:55:13.590Z,38.76
2024-04-09T08:57:45.856Z,38.97
2024-04-09T09:00:21.810Z,38.68
2024-04-09T09:02:54.247Z,38.36
2024-04-09T09:05:29.037Z,38.33
2024-04-09T09:08:07.505Z,38.58
2024-04-09T09:10:43.121Z,38.21
2024-04-09T09:13:20.473Z,38.37
2024-04-09T09:15:58.191Z,38.04
2024-04-09T09:18:30.508Z,37.86
2024-04-09T09:21:06.818Z,37.94
2024-04-09T09:23:41.551Z,38.00
2024-04-09T09:26:26.422Z,37.57
2024-04-09T09:29:04.891Z,37.64
2024-04-09T09:31:43.095Z,37.57
2024-04-09T09:34:18.499Z,37.42
2024-04-09T09:36:59.976Z,37.51
2024-04-09T09:39:36.530Z,37.40
2024-04-09T09:42:13.687Z,37.57
2024-04-09T09:44:46.466Z,37.53
2024-04-09T09:47:22.510Z,37.54
2024-04-09T09:50:01.955Z,36.78
2024-04-09T09:52:45.774Z,37.44
2024-04-09T09:55:21.067Z,37.23
2024-04-09T09:57:58.358Z,36.98
2024-04-09T10:00:34.119Z,37.53
2024-04-09T10:03:09.948Z,37.10
2024-04-09T10:05:42.599Z,37.08
2024-04-09T10:08:20.653Z,36.92
2024-04-09T10:10:56.217Z,37.04
2024-04-09T10:13:31.665Z,36.93
2024-04-09T10:16:04.496Z,37.41
2024-04-09T10:18:40.341Z,36.94
2024-04-09T10:21:15.282Z,37.08
2024-04-09T10:23:51.630Z,37.02
2024-04-09T10:26:26.468Z,37.44
2024-04-09T10:29:07.782Z,37.06
2024-04-09T10:31:46.022Z,36.62
2024-04-09T10:34:32.462Z,36.92
2024-04-09T10:37:08.143Z,36.64
2024-04-09T10:39:44.122Z,36.84
2024-04-09T10:42:21.412Z,36.75
2024-04-09T10:44:56.028Z,36.69
2024-04-09T10:47:28.200Z,37.13
2024-04-09T10:50:03.530Z,37.24
2024-04-09T10:52:35.784Z,36.94
2024-04-09T10:55:10.733Z,37.00
2024-04-09T10:57:52.500Z,37.08
2024-04-09T11:00:28.276Z,36.52
2024-04-09T11:03:00.675Z,37.11
2024-04-09T11:05:35.598Z,36.60
2024-04-09T11:08:09.211Z,37.05
2024-04-09T11:10:44.154Z,37.24
2024-04-09T11:13:19.025Z,37.03
2024-04-09T11:15:53.693Z,37.08
2024-04-09T11:18:26.782Z,37.41
2024-04-09T11:21:03.092Z,37.11
2024-04-09T11:23:35.427Z,36.89
2024-04-09T11:26:10.560Z,37.23
2024-04-09T11:28:53.618Z,37.12
2024-04-09T11:31:28.803Z,37.24
2024-04-09T11:34:01.234Z,37.37
2024-04-09T11:36:37.649Z,37.51
2024-04-09T11:39:09.878Z,37.46
2024-04-09T11:41:45.753Z,37.48
2024-04-09T11:44:24.693Z,37.63
2024-04-09T11:47:00.050Z,37.57
2024-04-09T11:49:32.344Z,37.90
2024-04-09T11:52:07.766Z,37.23
2024-04-09T11:54:40.104Z,37.62
2024-04-09T11:57:16.278Z,37.90
2024-04-09T11:59:51.362Z,37.65
2024-04-09T12:02:27.311Z,38.08
2024-04-09T12:04:59.557Z,37.95
2024-04-09T12:07:34.569Z,38.14
2024-04-09T12:10:08.303Z,38.18
2024-04-09T12:12:43.451Z,38.21
2024-04-09T12:15:21.011Z,37.89
2024-04-09T12:17:53.319Z,37.85
2024-04-09T12:20:28.244Z,38.29
2024-04-09T12:23:00.498Z,38.18
2024-04-09T12:25:35.117Z,38.43
2024-04-09T12:28:07.732Z,38.73
2024-04-09T12:30:45.613Z,38.80
2024-04-09T12:33:21.044Z,38.55
2024-04-09T12:35:56.003Z,38.51
2024-04-09T12:38:28.651Z,38.54
2024-04-09T12:41:03.424Z,38.45
2024-04-09T12:43:35.888Z,38.91
2024-04-09T12:46:13.730Z,39.02
2024-04-09T12:49:00.495Z,39.45
2024-04-09T12:51:40.695Z,39.41
2024-04-09T12:54:13.121Z,39.36
2024-04-09T12:56:48.031Z,39.48
2024-04-09T12:59:26.421Z,39.91
2024-04-09T13:02:19.739Z,39.47
2024-04-09T13:04:52.305Z,39.58
2024-04-09T13:07:27.072Z,39.69
2024-04-09T13:09:59.210Z,39.54
2024-04-09T13:12:33.963Z,39.70
2024-04-09T13:16:44.151Z,39.68
2024-04-09T13:18:04.092Z,39.50
2024-04-09T13:20:36.388Z,39.64
2024-04-09T13:23:11.169Z,39.41
2024-04-09T13:25:43.691Z,39.78
2024-04-09T13:28:18.458Z,39.68
2024-04-09T13:30:50.813Z,39.65
2024-04-09T13:33:28.084Z,39.83
2024-04-09T13:36:00.140Z,39.81
2024-04-09T13:38:35.257Z,39.45
2024-04-09T13:41:07.443Z,40.04
2024-04-09T13:43:42.037Z,39.69
2024-04-09T13:46:16.750Z,39.83
2024-04-09T13:48:56.284Z,39.50
2024-04-09T13:51:28.464Z,39.44
2024-04-09T13:54:03.622Z,39.75
2024-04-09T13:56:36.190Z,39.89
2024-04-09T13:59:12.687Z,40.15
2024-04-09T14:01:45.171Z,39.74
2024-04-09T14:04:22.609Z,39.12
2024-04-09T14:06:54.771Z,39.30
2024-04-09T14:09:29.655Z,39.24
2024-04-09T14:12:02.293Z,39.27
2024-04-09T14:14:37.197Z,39.21
2024-04-09T14:17:09.661Z,39.27
2024-04-09T14:19:47.616Z,39.41
2024-04-09T14:22:20.757Z,39.13
2024-04-09T14:24:56.353Z,39.36
2024-04-09T14:27:28.341Z,39.14
2024-04-09T14:30:03.164Z,38.91
2024-04-09T14:32:35.526Z,39.00
2024-04-09T14:35:13.330Z,39.35
2024-04-09T14:37:46.051Z,39.34
2024-04-09T14:40:20.771Z,39.47
2024-04-09T14:42:55.732Z,39.25
2024-04-09T14:45:32.059Z,39.30
2024-04-09T14:48:05.801Z,38.98
2024-04-09T14:50:46.339Z,38.83
2024-04-09T14:53:18.421Z,38.95
2024-04-09T14:55:53.164Z,38.93
2024-04-09T14:58:25.828Z,39.39
2024-04-09T15:01:01.114Z,39.10
2024-04-09T15:03:33.430Z,39.53
2024-04-09T15:06:12.293Z,39.12
2024-04-09T15:08:44.494Z,39.41
2024-04-09T15:11:20.715Z,39.73
2024-04-09T15:13:52.976Z,40.02
2024-04-09T15:16:28.217Z,39.69
2024-04-09T15:19:00.468Z,39.88
2024-04-09T15:21:38.220Z,39.93
2024-04-09T15:24:12.963Z,39.99
2024-04-09T15:26:47.995Z,40.15
2024-04-09T15:29:20.878Z,40.22
2024-04-09T15:31:56.249Z,40.52
2024-04-09T15:34:29.442Z,40.24
2024-04-09T15:37:07.406Z,40.64
2024-04-09T15:39:40.342Z,40.43
2024-04-09T15:42:14.819Z,40.72
2024-04-09T15:44:47.814Z,40.17
2024-04-09T15:47:22.335Z,40.21
2024-04-09T15:49:54.413Z,40.45
2024-04-09T15:52:32.005Z,40.55
2024-04-09T15:55:05.328Z,40.58
2024-04-09T15:57:40.056Z,40.77
2024-04-09T16:00:13.544Z,40.61
2024-04-09T16:02:49.022Z,40.94
2024-04-09T16:05:21.284Z,40.78
2024-04-09T16:07:59.030Z,40.67
2024-04-09T16:10:31.304Z,40.66
2024-04-09T16:13:06.894Z,40.87
2024-04-09T16:15:39.358Z,40.55
2024-04-09T16:18:16.986Z,40.85
2024-04-09T16:20:49.230Z,40.65
2024-04-09T16:23:26.934Z,40.88
2024-04-09T16:26:02.548Z,40.67
2024-04-09T16:28:37.369Z,40.77
2024-04-09T16:31:09.350Z,40.38
2024-04-09T16:33:44.274Z,40.58
2024-04-09T16:36:16.674Z,40.32
2024-04-09T16:38:54.471Z,40.73
2024-04-09T16:41:26.731Z,40.26
2024-04-09T16:44:01.505Z,40.57
2024-04-09T16:46:33.689Z,40.87
2024-04-09T16:49:08.715Z,40.87
2024-04-09T16:51:41.404Z,40.65
2024-04-09T16:54:19.365Z,40.89
2024-04-09T16:56:57.191Z,40.71
2024-04-09T16:59:32.851Z,40.58
2024-04-09T17:02:07.881Z,40.88
2024-04-09T17:04:40.440Z,40.98
2024-04-09T17:07:15.894Z,40.91
2024-04-09T17:09:52.946Z,41.22
2024-04-09T17:12:27.605Z,41.57
2024-04-09T17:15:05.599Z,41.01
2024-04-09T17:17:43.906Z,41.17
2024-04-09T17:20:16.506Z,40.83
2024-04-09T17:22:52.602Z,40.96
2024-04-09T17:25:27.661Z,41.32
2024-04-09T17:28:05.434Z,41.11
2024-04-09T17:30:37.642Z,41.14
2024-04-09T17:33:16.722Z,41.34
2024-04-09T17:35:49.253Z,41.20
2024-04-09T17:38:24.133Z,41.17
2024-04-09T17:40:59.793Z,41.53
2024-04-09T17:43:34.787Z,40.99
2024-04-09T17:46:11.598Z,41.21
2024-04-09T17:48:46.307Z,41.01
2024-04-09T17:51:28.683Z,41.01
2024-04-09T17:54:03.538Z,41.24
2024-04-09T17:56:41.542Z,40.90
2024-04-09T17:59:31.158Z,41.29
2024-04-09T18:02:08.497Z,41.14
2024-04-09T18:04:40.755Z,41.27
2024-04-09T18:07:17.929Z,41.21
2024-04-09T18:09:50.382Z,41.36
2024-04-09T18:12:27.977Z,41.28
2024-04-09T18:15:00.635Z,41.08
2024-04-09T18:17:36.075Z,41.12
2024-04-09T18:20:09.739Z,41.13
2024-04-09T18:22:44.510Z,40.81
2024-04-09T18:25:17.168Z,40.58
2024-04-09T18:27:56.591Z,40.72
2024-04-09T18:30:28.996Z,40.47
2024-04-09T18:33:05.766Z,40.72
2024-04-09T18:35:38.239Z,40.68
2024-04-09T18:38:16.534Z,40.61
2024-04-09T18:40:59.528Z,40.38
2024-04-09T18:43:44.598Z,40.78
2024-04-09T18:46:18.725Z,40.91
2024-04-09T18:48:54.377Z,40.91
2024-04-09T18:51:26.434Z,40.80
2024-04-09T18:54:02.217Z,40.94
2024-04-09T18:56:36.122Z,40.92
2024-04-09T18:59:13.831Z,40.64
2024-04-09T19:01:46.388Z,41.22
2024-04-09T19:04:21.206Z,41.09
2024-04-09T19:06:53.319Z,40.59
2024-04-09T19:09:28.041Z,40.95
2024-04-09T19:12:00.239Z,40.90
2024-04-09T19:14:38.583Z,40.31
2024-04-09T19:17:11.102Z,40.80
2024-04-09T19:19:46.211Z,40.47
2024-04-09T19:22:18.458Z,40.49
2024-04-09T19:24:53.533Z,40.42
2024-04-09T19:27:25.684Z,40.78
2024-04-09T19:30:04.967Z,40.96
2024-04-09T19:32:37.160Z,40.99
2024-04-09T19:35:12.572Z,40.91
2024-04-09T19:37:44.903Z,41.01
2024-04-09T19:40:19.972Z,40.84
2024-04-09T19:42:54.335Z,41.06
2024-04-09T19:45:33.205Z,40.73
2024-04-09T19:48:07.300Z,40.92
2024-04-09T19:50:42.300Z,40.95
2024-04-09T19:53:25.908Z,40.92
2024-04-09T19:56:09.396Z,41.07
2024-04-09T19:58:41.645Z,41.20
2024-04-09T20:01:19.306Z,41.08
2024-04-09T20:03:51.764Z,40.78
2024-04-09T20:06:26.516Z,41.23
2024-04-09T20:08:58.612Z,40.78
2024-04-09T20:11:33.382Z,40.86
2024-04-09T20:14:05.564Z,40.94
2024-04-09T20:16:43.661Z,40.60
2024-04-09T20:19:16.551Z,41.23
2024-04-09T20:21:52.038Z,41.04
2024-04-09T20:24:24.269Z,40.53
2024-04-09T20:26:58.956Z,40.67
2024-04-09T20:29:31.143Z,41.03
2024-04-09T20:32:09.677Z,40.62
2024-04-09T20:34:43.767Z,40.54
2024-04-09T20:37:18.677Z,40.52
2024-04-09T20:39:50.971Z,40.60
2024-04-09T20:42:26.742Z,40.21
2024-04-09T20:44:59.044Z,40.42
2024-04-09T20:47:36.572Z,40.65
2024-04-09T20:50:08.818Z,40.89
2024-04-09T20:52:43.500Z,40.73
2024-04-09T20:55:16.196Z,39.99
2024-04-09T20:57:53.068Z,39.47
2024-04-09T21:00:27.600Z,40.43
2024-04-09T21:03:05.107Z,40.53
2024-04-09T21:05:37.397Z,40.75
2024-04-09T21:08:13.106Z,40.68
2024-04-09T21:10:47.553Z,40.34
2024-04-09T21:13:22.395Z,40.18
2024-04-09T21:15:54.550Z,40.31
2024-04-09T21:18:32.065Z,39.90
2024-04-09T21:21:06.911Z,39.69
2024-04-09T21:23:41.602Z,39.71
2024-04-09T21:26:15.031Z,39.75
2024-04-09T21:28:50.017Z,40.01
2024-04-09T21:31:22.372Z,39.81
2024-04-09T21:33:59.780Z,39.66
2024-04-09T21:36:31.875Z,40.01
2024-04-09T21:39:06.782Z,39.69
2024-04-09T21:41:41.715Z,39.68
2024-04-09T21:44:13.772Z,39.72
2024-04-09T21:46:48.535Z,39.52
2024-04-09T21:49:23.277Z,39.61
2024-04-09T21:51:58.077Z,39.66
2024-04-09T21:54:30.397Z,39.67
2024-04-09T21:57:05.995Z,39.73
2024-04-09T21:59:38.068Z,39.75
2024-04-09T22:02:12.783Z,39.98
2024-04-09T22:04:48.469Z,39.74
2024-04-09T22:07:23.980Z,39.96
2024-04-09T22:09:56.101Z,40.14
2024-04-09T22:12:30.874Z,39.76
2024-04-09T22:15:02.975Z,39.58
2024-04-09T22:20:12.650Z,40.08
2024-04-09T22:22:47.528Z,39.55
2024-04-09T22:25:19.526Z,39.58
2024-04-09T22:27:54.175Z,39.74
2024-04-09T22:30:26.347Z,39.86
2024-04-09T22:33:01.293Z,39.81
2024-04-09T22:35:36.469Z,39.62
2024-04-09T22:38:12.174Z,39.93
2024-04-09T22:40:44.425Z,39.77
2024-04-09T22:43:19.159Z,39.81
2024-04-09T22:45:59.335Z,39.96
2024-04-09T22:48:35.643Z,39.97
2024-04-09T22:51:11.433Z,40.04
2024-04-09T22:53:46.115Z,40.11
2024-04-09T22:56:18.314Z,40.37
2024-04-09T22:58:53.741Z,40.15
2024-04-09T23:01:25.943Z,40.09
2024-04-09T23:04:00.854Z,39.97
2024-04-09T23:06:35.653Z,40.23
2024-04-09T23:09:13.817Z,39.91
2024-04-09T23:11:46.051Z,40.05
2024-04-09T23:14:21.599Z,40.33
2024-04-09T23:16:54.439Z,40.33
2024-04-09T23:19:30.279Z,40.57
2024-04-09T23:22:05.329Z,40.57
2024-04-09T23:24:40.248Z,40.50
2024-04-09T23:27:12.353Z,40.69
2024-04-09T23:29:49.450Z,40.74
2024-04-09T23:32:21.689Z,40.43
2024-04-09T23:34:56.507Z,40.79
2024-04-09T23:37:31.290Z,40.42
2024-04-09T23:40:07.562Z,40.72
2024-04-09T23:42:39.636Z,40.43
2024-04-09T23:45:14.481Z,40.39
2024-04-09T23:47:47.573Z,40.40
2024-04-09T23:50:22.825Z,41.08
2024-04-09T23:52:57.735Z,41.11
2024-04-09T23:55:32.876Z,41.18
2024-04-09T23:58:05.229Z,40.71
